Time;durP1;ratioP1;P1;durP2;ratioP2;P2;SDS_P1;SDS_P2;PMS_P1;PMS_P2;Temp;Humidity;BMP_temperature;BMP_pressure;BME280_temperature;BME280_humidity;BME280_pressure;Samples;Min_cycle;Max_cycle;Signal;HPM_P1;HPM_P2
2021/07/25 00:00:55;;;;;;;18.23;8.43;;;;;;;17.50;70.98;100547.72;4934589;28;20118;-82
2021/07/25 00:03:20;;;;;;;14.13;8.48;;;;;;;17.51;71.27;100544.75;4930294;28;20045;-81
2021/07/25 00:05:46;;;;;;;16.23;8.23;;;;;;;17.58;71.12;100558.28;4960832;28;20478;-81
2021/07/25 00:08:12;;;;;;;18.10;8.40;;;;;;;17.61;70.78;100551.56;4932827;28;20031;-82
2021/07/25 00:10:41;;;;;;;17.17;8.07;;;;;;;17.68;70.88;100560.50;4944092;28;20114;-81
2021/07/25 00:13:07;;;;;;;14.25;8.52;;;;;;;17.66;70.64;100546.28;4944552;28;20034;-79
2021/07/25 00:15:33;;;;;;;18.08;8.40;;;;;;;17.63;70.59;100542.13;4928011;29;20050;-83
2021/07/25 00:17:58;;;;;;;17.02;8.57;;;;;;;17.62;71.05;100551.31;4950274;28;20031;-84
2021/07/25 00:20:24;;;;;;;18.20;8.80;;;;;;;17.56;71.13;100536.75;4930464;28;20042;-82
2021/07/25 00:22:49;;;;;;;16.45;8.98;;;;;;;17.53;71.13;100541.84;4928211;29;20039;-82
2021/07/25 00:25:21;;;;;;;16.45;8.13;;;;;;;17.58;71.17;100542.81;4932395;28;20578;-83
2021/07/25 00:27:57;;;;;;;14.98;8.38;;;;;;;17.66;70.91;100557.97;4931469;28;20058;-82
2021/07/25 00:30:24;;;;;;;16.63;8.98;;;;;;;17.58;70.50;100534.66;4957540;28;20114;-81
2021/07/25 00:32:50;;;;;;;16.23;9.27;;;;;;;17.57;70.39;100530.28;4927481;29;20035;-80
2021/07/25 00:35:18;;;;;;;15.35;8.27;;;;;;;17.58;70.50;100531.94;4947515;28;20102;-79
2021/07/25 00:37:47;;;;;;;16.77;8.75;;;;;;;17.62;70.58;100539.63;4930990;28;20058;-81
2021/07/25 00:40:20;;;;;;;18.77;9.10;;;;;;;17.46;71.10;100533.72;4930956;28;20035;-83
2021/07/25 00:42:45;;;;;;;16.70;8.90;;;;;;;17.42;71.58;100535.25;4929634;28;20082;-84
2021/07/25 00:45:11;;;;;;;19.10;9.07;;;;;;;17.39;71.76;100535.72;4946544;28;20035;-83
2021/07/25 00:47:38;;;;;;;20.35;8.70;;;;;;;17.45;71.44;100545.69;4950232;28;20133;-82
2021/07/25 00:50:05;;;;;;;16.50;9.10;;;;;;;17.40;71.22;100548.25;4949713;28;20114;-84
2021/07/25 00:52:31;;;;;;;15.93;8.35;;;;;;;17.29;71.30;100538.94;4927513;29;20151;-82
2021/07/25 00:54:57;;;;;;;15.63;8.10;;;;;;;17.22;71.64;100542.78;4944940;28;20058;-82
2021/07/25 00:57:22;;;;;;;14.82;8.27;;;;;;;17.11;71.59;100538.94;4947864;28;20042;-83
2021/07/25 00:59:47;;;;;;;18.38;7.88;;;;;;;17.08;71.86;100542.09;4934686;28;20471;-82
2021/07/25 01:02:13;;;;;;;16.45;8.77;;;;;;;17.06;71.91;100541.50;4931906;29;20031;-82
2021/07/25 01:04:42;;;;;;;16.65;8.43;;;;;;;17.12;72.26;100548.72;4935464;28;20031;-83
2021/07/25 01:07:30;;;;;;;17.67;8.38;;;;;;;17.09;72.22;100552.75;4934935;28;20027;-82
2021/07/25 01:10:04;;;;;;;14.95;8.38;;;;;;;17.09;72.32;100544.59;4955992;28;20034;-83
2021/07/25 01:12:33;;;;;;;14.88;7.88;;;;;;;17.12;72.41;100546.88;4952886;28;20031;-82
2021/07/25 01:14:59;;;;;;;18.45;10.07;;;;;;;17.13;72.50;100537.66;4934807;29;20940;-80
2021/07/25 01:17:29;;;;;;;16.75;8.85;;;;;;;17.19;72.27;100541.34;4933354;28;20031;-82
2021/07/25 01:19:57;;;;;;;16.20;9.48;;;;;;;17.19;72.18;100546.78;4948898;28;20155;-83
2021/07/25 01:22:22;;;;;;;17.38;8.95;;;;;;;17.09;72.23;100539.19;4932337;28;20027;-81
2021/07/25 01:24:48;;;;;;;14.63;8.43;;;;;;;16.97;71.70;100546.38;4932901;28;20027;-81
2021/07/25 01:27:48;;;;;;;16.42;8.00;;;;;;;16.65;72.72;100535.56;4936912;28;20090;-81
2021/07/25 01:30:17;;;;;;;16.08;8.02;;;;;;;16.34;74.26;100539.13;4954877;28;20035;-83
2021/07/25 01:32:44;;;;;;;16.45;7.90;;;;;;;16.10;74.54;100526.34;4950856;28;20031;-85
2021/07/25 01:35:13;;;;;;;15.55;7.32;;;;;;;16.10;74.10;100531.78;4952552;28;20042;-81
2021/07/25 01:37:38;;;;;;;13.00;7.85;;;;;;;15.95;74.46;100523.91;4933133;28;20034;-84
2021/07/25 01:40:11;;;;;;;12.82;7.35;;;;;;;15.87;75.65;100527.72;4948114;28;20015;-84
2021/07/25 01:42:36;;;;;;;17.10;8.50;;;;;;;15.80;75.33;100532.34;4965858;28;20030;-82
2021/07/25 01:45:03;;;;;;;14.80;7.85;;;;;;;15.83;75.86;100529.22;4950097;28;20055;-81
2021/07/25 01:47:29;;;;;;;16.25;7.95;;;;;;;15.90;75.71;100537.28;4951593;28;20095;-80
2021/07/25 01:49:55;;;;;;;16.08;8.60;;;;;;;15.90;75.24;100524.56;4946775;28;20031;-81
2021/07/25 01:52:20;;;;;;;12.98;7.50;;;;;;;15.96;75.11;100520.19;4950797;28;20034;-83
2021/07/25 01:54:45;;;;;;;13.48;7.65;;;;;;;15.98;75.16;100524.34;4946631;28;20046;-82
2021/07/25 01:57:11;;;;;;;13.65;7.38;;;;;;;15.97;75.21;100519.94;4946330;28;20028;-82
2021/07/25 01:59:36;;;;;;;14.95;7.35;;;;;;;15.93;75.12;100537.72;4935438;28;20027;-83
2021/07/25 02:02:02;;;;;;;13.43;7.75;;;;;;;15.72;75.77;100521.75;4951831;28;20039;-83
2021/07/25 02:04:27;;;;;;;14.18;7.82;;;;;;;15.68;75.56;100534.84;4951915;28;20027;-81
2021/07/25 02:06:53;;;;;;;16.10;8.48;;;;;;;15.63;76.10;100531.97;4933723;29;20470;-83
2021/07/25 02:09:18;;;;;;;17.70;8.85;;;;;;;15.65;75.38;100532.59;4950017;28;20059;-82
2021/07/25 02:11:44;;;;;;;13.88;7.95;;;;;;;15.65;74.91;100527.16;4953184;28;20031;-83
2021/07/25 02:14:09;;;;;;;17.75;8.63;;;;;;;15.61;75.92;100528.63;4933944;28;20114;-83
2021/07/25 02:16:36;;;;;;;16.27;7.72;;;;;;;15.54;75.82;100544.91;4948641;28;20086;-83
2021/07/25 02:19:01;;;;;;;20.17;8.60;;;;;;;15.46;76.36;100537.03;4954436;28;20058;-83
2021/07/25 02:21:27;;;;;;;15.07;8.27;;;;;;;15.31;76.86;100531.84;4950689;28;20051;-82
2021/07/25 02:23:52;;;;;;;13.27;7.93;;;;;;;15.28;76.54;100534.16;4947876;28;20043;-82
2021/07/25 02:26:18;;;;;;;17.45;8.10;;;;;;;15.30;76.57;100532.91;4952375;28;21012;-82
2021/07/25 02:28:43;;;;;;;15.77;8.15;;;;;;;15.30;76.38;100532.09;4949615;28;20047;-82
2021/07/25 02:31:09;;;;;;;13.57;7.65;;;;;;;15.31;76.70;100539.16;4950500;28;20570;-82
2021/07/25 02:33:34;;;;;;;15.35;7.00;;;;;;;15.32;76.28;100528.13;4932715;29;20085;-83
2021/07/25 02:35:59;;;;;;;15.40;7.65;;;;;;;15.28;76.40;100526.88;4949087;28;20035;-82
2021/07/25 02:38:25;;;;;;;16.60;8.43;;;;;;;15.29;76.87;100530.41;4951516;28;20054;-81
2021/07/25 02:40:50;;;;;;;14.30;7.30;;;;;;;15.18;77.62;100521.06;4933178;29;20542;-82
2021/07/25 02:43:16;;;;;;;16.15;8.25;;;;;;;15.24;77.72;100528.34;4950850;28;20042;-82
2021/07/25 02:45:41;;;;;;;16.55;9.20;;;;;;;15.42;77.99;100540.38;4951228;28;20038;-82
2021/07/25 02:48:07;;;;;;;16.80;9.45;;;;;;;15.58;78.24;100539.91;4932467;28;20035;-83
2021/07/25 02:50:32;;;;;;;15.45;8.82;;;;;;;15.67;77.89;100526.97;4931595;28;20035;-82
2021/07/25 02:52:57;;;;;;;19.73;8.57;;;;;;;15.73;77.45;100537.78;4932947;28;20038;-83
2021/07/25 02:55:23;;;;;;;16.73;8.73;;;;;;;15.50;78.05;100510.31;4953158;28;20050;-82
2021/07/25 02:57:48;;;;;;;18.38;8.80;;;;;;;15.61;78.57;100536.75;4935695;28;20053;-82
2021/07/25 03:00:14;;;;;;;13.80;8.40;;;;;;;15.60;78.64;100540.53;4966622;28;20509;-84
2021/07/25 03:02:39;;;;;;;14.05;8.18;;;;;;;15.54;78.86;100523.25;4933971;28;20043;-83
2021/07/25 03:05:06;;;;;;;18.35;9.10;;;;;;;15.64;78.79;100539.06;4963772;28;20059;-82
2021/07/25 03:07:31;;;;;;;13.75;8.15;;;;;;;15.59;78.28;100536.16;4950623;28;20466;-82
2021/07/25 03:09:57;;;;;;;15.90;8.63;;;;;;;15.46;78.48;100528.06;4936973;28;20103;-82
2021/07/25 03:12:22;;;;;;;17.00;7.75;;;;;;;15.44;78.97;100533.69;4936739;28;20022;-82
2021/07/25 03:14:48;;;;;;;15.27;8.55;;;;;;;15.39;78.97;100537.03;4952963;28;20506;-82
2021/07/25 03:17:13;;;;;;;17.00;8.65;;;;;;;15.33;79.13;100535.19;4951741;28;20027;-82
2021/07/25 03:19:38;;;;;;;15.75;8.43;;;;;;;15.22;79.06;100511.47;4950287;28;20099;-83
2021/07/25 03:22:07;;;;;;;16.85;8.65;;;;;;;15.31;78.96;100525.59;4938095;28;20691;-82
2021/07/25 03:24:33;;;;;;;16.60;8.27;;;;;;;15.35;78.72;100535.81;4950753;28;20114;-82
2021/07/25 03:26:59;;;;;;;17.60;8.32;;;;;;;15.34;78.60;100528.72;4950887;28;20522;-81
2021/07/25 03:29:25;;;;;;;16.77;8.52;;;;;;;15.44;78.48;100535.59;4948053;29;20502;-82
2021/07/25 03:31:51;;;;;;;16.95;8.93;;;;;;;15.39;77.97;100533.50;4932864;28;20086;-82
2021/07/25 03:34:16;;;;;;;17.27;8.90;;;;;;;15.39;77.93;100531.63;4932031;29;20027;-81
2021/07/25 03:36:43;;;;;;;16.05;8.73;;;;;;;15.47;77.40;100549.53;4934871;28;20035;-82
2021/07/25 03:39:12;;;;;;;13.68;7.72;;;;;;;15.38;77.57;100535.38;4933616;28;20117;-81
2021/07/25 03:41:38;;;;;;;15.70;8.68;;;;;;;15.32;77.96;100546.22;4927650;28;20027;-82
2021/07/25 03:44:03;;;;;;;20.38;9.70;;;;;;;15.19;77.90;100530.84;4957540;28;20029;-82
2021/07/25 03:46:29;;;;;;;15.65;8.15;;;;;;;15.35;77.67;100549.38;4949902;28;20025;-82
2021/07/25 03:48:54;;;;;;;16.88;8.68;;;;;;;15.29;77.73;100533.94;4948996;29;20027;-82
2021/07/25 03:51:20;;;;;;;13.93;8.48;;;;;;;15.39;77.87;100552.47;4949005;29;20037;-81
2021/07/25 03:53:45;;;;;;;14.20;8.10;;;;;;;15.37;77.50;100544.56;4939307;28;20097;-82
2021/07/25 03:56:11;;;;;;;17.10;8.55;;;;;;;15.34;77.67;100555.81;4947663;28;20494;-81
2021/07/25 03:58:36;;;;;;;13.98;7.72;;;;;;;15.22;77.62;100541.25;4951168;29;20478;-82
2021/07/25 04:01:01;;;;;;;14.85;7.90;;;;;;;15.22;77.51;100541.25;4954208;28;20035;-82
2021/07/25 04:03:27;;;;;;;15.15;8.25;;;;;;;15.20;77.71;100559.59;4933810;28;20035;-82
2021/07/25 04:05:53;;;;;;;18.55;8.50;;;;;;;15.22;77.67;100556.69;4934827;28;20039;-82
2021/07/25 04:08:18;;;;;;;15.80;8.45;;;;;;;15.19;78.18;100552.53;4933272;29;20400;-81
2021/07/25 04:10:44;;;;;;;16.23;8.20;;;;;;;15.17;77.49;100557.31;4949487;29;20027;-80
2021/07/25 04:13:11;;;;;;;15.15;8.63;;;;;;;15.17;76.96;100560.03;4950443;29;20023;-82
2021/07/25 04:15:41;;;;;;;15.88;8.07;;;;;;;15.07;77.38;100549.63;4934811;29;20067;-82
2021/07/25 04:18:07;;;;;;;15.63;7.97;;;;;;;15.14;77.15;100560.44;4947498;29;20035;-82
2021/07/25 04:20:33;;;;;;;16.52;8.38;;;;;;;15.19;76.88;100563.38;4942784;29;20054;-81
2021/07/25 04:22:59;;;;;;;16.65;7.65;;;;;;;15.14;76.92;100555.03;4948961;28;20031;-82
2021/07/25 04:25:24;;;;;;;12.98;7.55;;;;;;;15.22;76.75;100562.09;4930499;29;20529;-83
2021/07/25 04:27:50;;;;;;;16.42;8.10;;;;;;;15.15;76.32;100549.38;4935114;28;20031;-82
2021/07/25 04:30:16;;;;;;;12.23;7.80;;;;;;;15.13;76.03;100553.34;4957217;28;20027;-82
2021/07/25 04:32:42;;;;;;;16.15;8.00;;;;;;;15.15;75.91;100565.63;4954961;28;20118;-82
2021/07/25 04:35:08;;;;;;;12.45;7.38;;;;;;;15.06;76.65;100563.38;4940661;28;20030;-82
2021/07/25 04:37:36;;;;;;;14.80;7.72;;;;;;;15.01;76.54;100563.19;4955090;28;20035;-83
2021/07/25 04:40:02;;;;;;;18.33;7.80;;;;;;;14.88;76.70;100545.06;4952301;28;20047;-82
2021/07/25 04:42:30;;;;;;;11.30;7.40;;;;;;;14.93;76.77;100575.88;4951885;29;20035;-83
2021/07/25 04:45:03;;;;;;;15.70;7.60;;;;;;;14.90;76.73;100564.63;4938454;28;20030;-82
2021/07/25 04:47:40;;;;;;;15.43;7.25;;;;;;;14.90;76.20;100570.88;4934723;29;20502;-82
2021/07/25 04:50:08;;;;;;;13.55;8.18;;;;;;;14.87;76.73;100574.00;4940920;29;20583;-82
2021/07/25 04:52:37;;;;;;;13.20;6.70;;;;;;;14.74;76.53;100557.78;4971666;28;20030;-83
2021/07/25 04:55:05;;;;;;;12.38;7.47;;;;;;;14.77;76.60;100560.06;4955905;29;20026;-82
2021/07/25 04:57:37;;;;;;;14.55;7.45;;;;;;;14.79;76.93;100563.41;4955067;29;20105;-82
2021/07/25 05:00:03;;;;;;;12.45;7.07;;;;;;;14.83;76.11;100567.34;4946732;28;20026;-81
2021/07/25 05:02:31;;;;;;;14.00;7.38;;;;;;;14.79;76.47;100568.81;4955231;28;20447;-83
2021/07/25 05:04:56;;;;;;;11.50;7.65;;;;;;;14.72;76.53;100562.56;4956810;29;20027;-82
2021/07/25 05:07:22;;;;;;;15.70;8.57;;;;;;;14.75;76.64;100570.25;4957738;28;20026;-82
2021/07/25 05:09:48;;;;;;;14.25;7.63;;;;;;;14.60;76.86;100550.66;4936126;28;20027;-82
2021/07/25 05:12:27;;;;;;;12.95;7.55;;;;;;;14.75;76.74;100561.31;4955315;29;20027;-82
2021/07/25 05:15:25;;;;;;;11.70;7.28;;;;;;;14.85;76.99;100578.78;4952599;29;20082;-85
2021/07/25 05:18:19;;;;;;;13.82;7.40;;;;;;;14.77;76.34;100562.75;4942109;29;20037;-84
2021/07/25 05:21:23;;;;;;;12.93;7.45;;;;;;;14.85;77.09;100580.69;4938524;29;20053;-84
2021/07/25 05:23:53;;;;;;;11.57;6.95;;;;;;;14.84;77.12;100579.00;4962824;28;20142;-81
2021/07/25 05:26:28;;;;;;;13.32;6.88;;;;;;;14.91;76.92;100577.94;4939386;28;20035;-82
2021/07/25 05:28:58;;;;;;;15.77;7.63;;;;;;;14.92;76.74;100576.94;4940401;29;20107;-82
2021/07/25 05:31:31;;;;;;;16.48;7.95;;;;;;;15.05;76.79;100580.66;4938995;29;20563;-82
2021/07/25 05:33:56;;;;;;;11.85;6.47;;;;;;;15.09;76.98;100590.03;4971256;28;20042;-85
2021/07/25 05:36:22;;;;;;;11.35;6.75;;;;;;;15.08;76.83;100588.34;4939911;29;20031;-82
2021/07/25 05:38:47;;;;;;;16.98;7.65;;;;;;;15.19;76.59;100587.75;4955248;28;20024;-85
2021/07/25 05:41:13;;;;;;;11.50;6.78;;;;;;;15.22;76.53;100598.16;4954380;28;20477;-84
2021/07/25 05:43:38;;;;;;;12.73;7.07;;;;;;;15.30;76.46;100592.50;4937949;29;20496;-85
2021/07/25 05:46:04;;;;;;;13.15;7.22;;;;;;;15.33;76.26;100602.91;4936784;28;20522;-85
2021/07/25 05:48:29;;;;;;;12.95;6.78;;;;;;;15.27;76.74;100597.50;4952593;28;20031;-84
2021/07/25 05:50:54;;;;;;;13.40;7.45;;;;;;;15.23;77.40;100599.81;4941198;29;20066;-84
2021/07/25 05:53:20;;;;;;;13.88;7.22;;;;;;;15.22;77.26;100611.69;4955759;28;20027;-83
2021/07/25 05:55:45;;;;;;;10.93;6.65;;;;;;;15.24;77.31;100603.34;4937472;29;20103;-82
2021/07/25 05:58:11;;;;;;;12.80;7.15;;;;;;;15.25;77.28;100597.72;4955838;29;20090;-84
2021/07/25 06:00:36;;;;;;;15.50;7.82;;;;;;;15.40;77.26;100605.63;4951379;29;20624;-83
2021/07/25 06:03:02;;;;;;;11.18;7.72;;;;;;;15.48;76.98;100601.84;4936550;29;20031;-84
2021/07/25 06:05:35;;;;;;;14.98;7.45;;;;;;;15.61;76.89;100607.22;4939204;29;20057;-84
2021/07/25 06:08:02;;;;;;;11.98;6.90;;;;;;;15.63;76.58;100607.03;4955299;28;20031;-84
2021/07/25 06:10:29;;;;;;;12.38;7.55;;;;;;;15.70;76.82;100597.84;4937579;29;20043;-84
2021/07/25 06:12:56;;;;;;;10.88;7.13;;;;;;;15.74;76.31;100601.78;4936123;29;20030;-83
2021/07/25 06:15:23;;;;;;;11.80;7.60;;;;;;;15.84;76.50;100606.78;4938873;29;20409;-84
2021/07/25 06:17:48;;;;;;;14.60;7.40;;;;;;;15.93;76.27;100608.22;4956191;28;20050;-78
2021/07/25 06:20:14;;;;;;;14.25;6.78;;;;;;;16.07;76.13;100602.72;4957147;28;20019;-86
2021/07/25 06:22:51;;;;;;;12.35;7.03;;;;;;;16.30;75.85;100607.59;4935032;29;20390;-86
2021/07/25 06:25:21;;;;;;;13.25;6.82;;;;;;;16.46;75.52;100605.22;4939144;28;20027;-86
2021/07/25 06:27:53;;;;;;;14.60;7.53;;;;;;;16.64;74.89;100612.59;4952411;29;20482;-87
2021/07/25 06:30:20;;;;;;;13.52;8.50;;;;;;;16.79;73.97;100611.50;4954482;28;20035;-86
2021/07/25 06:33:09;;;;;;;11.60;7.20;;;;;;;16.88;73.88;100611.03;4935386;29;20038;-86
2021/07/25 06:35:38;;;;;;;12.13;6.75;;;;;;;16.92;74.01;100608.69;4949076;28;20094;-86
2021/07/25 06:38:12;;;;;;;15.20;7.30;;;;;;;16.99;73.77;100617.63;4938491;29;20102;-86
2021/07/25 06:40:41;;;;;;;13.30;7.82;;;;;;;17.13;73.65;100604.75;4936796;28;20065;-86
2021/07/25 06:43:06;;;;;;;13.35;7.90;;;;;;;17.25;73.45;100607.56;4945805;29;20038;-85
2021/07/25 06:45:33;;;;;;;12.40;7.40;;;;;;;17.35;73.00;100611.41;4932148;28;20262;-85
2021/07/25 06:47:58;;;;;;;11.77;6.97;;;;;;;17.41;72.85;100607.00;4934072;29;20031;-81
2021/07/25 06:50:26;;;;;;;9.50;6.93;;;;;;;17.48;72.32;100610.47;4951607;28;20030;-81
2021/07/25 06:52:52;;;;;;;11.27;7.07;;;;;;;17.55;72.34;100616.66;4939703;28;20038;-85
2021/07/25 06:55:19;;;;;;;14.10;7.65;;;;;;;17.62;71.98;100619.28;4939140;28;20050;-83
2021/07/25 06:57:45;;;;;;;14.95;7.80;;;;;;;17.68;71.62;100614.88;4959639;28;20092;-84
2021/07/25 07:00:11;;;;;;;11.82;7.05;;;;;;;17.75;71.66;100616.44;4946165;29;20146;-83
2021/07/25 07:02:56;;;;;;;14.63;7.07;;;;;;;17.83;71.34;100615.34;4943707;28;20086;-83
2021/07/25 07:05:29;;;;;;;12.02;6.88;;;;;;;17.95;71.18;100627.13;4944201;28;20383;-83
2021/07/25 07:07:55;;;;;;;;;;;;;;;17.96;70.95;100627.94;4962084;28;20027;-83
2021/07/25 07:10:23;;;;;;;13.98;8.23;;;;;;;17.93;70.78;100622.97;4974226;28;19923;-83
2021/07/25 07:12:49;;;;;;;11.50;7.53;;;;;;;17.81;70.79;100603.88;4935746;29;20067;-80
2021/07/25 07:15:16;;;;;;;11.35;7.78;;;;;;;17.88;70.89;100618.19;4952896;28;20483;-79
2021/07/25 07:17:41;;;;;;;14.95;7.47;;;;;;;17.95;70.64;100612.69;4952793;28;20038;-79
2021/07/25 07:20:09;;;;;;;11.25;7.38;;;;;;;18.11;70.44;100605.81;4936759;29;20023;-79
2021/07/25 07:22:35;;;;;;;11.73;7.22;;;;;;;18.30;69.94;100622.91;4949643;29;20023;-80
2021/07/25 07:25:01;;;;;;;10.02;6.78;;;;;;;18.39;69.84;100622.38;4950771;28;20035;-80
2021/07/25 07:27:27;;;;;;;11.55;7.50;;;;;;;18.50;69.68;100615.31;4949008;29;20023;-79
2021/07/25 07:29:53;;;;;;;14.23;7.10;;;;;;;18.62;69.38;100618.06;4952287;28;20066;-80
2021/07/25 07:32:19;;;;;;;15.13;7.40;;;;;;;18.69;68.92;100621.53;4941699;28;20039;-79
2021/07/25 07:34:44;;;;;;;9.95;6.70;;;;;;;18.79;68.31;100621.81;4951104;29;20111;-80
2021/07/25 07:37:10;;;;;;;15.95;7.38;;;;;;;18.82;68.42;100621.34;4936853;29;20031;-79
2021/07/25 07:39:40;;;;;;;15.48;7.80;;;;;;;18.83;68.31;100620.28;4951579;29;20026;-79
2021/07/25 07:42:06;;;;;;;11.82;6.72;;;;;;;19.00;68.44;100614.13;4951734;28;20114;-80
2021/07/25 07:44:32;;;;;;;14.80;8.20;;;;;;;19.15;68.15;100622.69;4948500;29;20035;-80
2021/07/25 07:46:58;;;;;;;11.73;6.45;;;;;;;19.18;67.19;100614.03;4963295;28;20031;-80
2021/07/25 07:49:24;;;;;;;14.75;7.53;;;;;;;19.19;66.98;100615.72;4924258;29;20074;-80
2021/07/25 07:51:50;;;;;;;16.55;7.55;;;;;;;19.26;67.10;100605.50;4936382;29;20122;-80
2021/07/25 07:54:15;;;;;;;13.70;7.63;;;;;;;19.31;66.53;100613.78;4927585;29;20038;-79
2021/07/25 07:56:40;;;;;;;10.80;7.15;;;;;;;19.36;66.16;100615.00;4959392;28;20083;-79
2021/07/25 07:59:06;;;;;;;11.63;7.60;;;;;;;19.38;65.90;100615.59;4952652;29;20023;-81
2021/07/25 08:01:31;;;;;;;12.90;7.70;;;;;;;19.50;65.85;100619.13;4938302;28;20031;-80
2021/07/25 08:03:57;;;;;;;13.07;7.35;;;;;;;19.50;65.30;100621.84;4950216;28;20024;-82
2021/07/25 08:06:22;;;;;;;12.70;7.47;;;;;;;19.55;65.77;100628.28;4936716;28;20026;-81
2021/07/25 08:08:48;;;;;;;12.65;7.65;;;;;;;19.62;65.82;100614.50;4934249;29;20027;-82
2021/07/25 08:11:13;;;;;;;10.73;7.38;;;;;;;19.79;65.55;100630.16;4951177;28;20059;-81
2021/07/25 08:13:39;;;;;;;10.82;7.07;;;;;;;19.82;64.82;100630.53;4945736;28;20022;-82
2021/07/25 08:16:04;;;;;;;16.00;7.72;;;;;;;19.87;64.71;100629.78;4946930;28;20042;-81
2021/07/25 08:18:30;;;;;;;12.02;8.10;;;;;;;19.92;64.34;100628.00;4948308;29;20031;-81
2021/07/25 08:20:56;;;;;;;12.07;7.68;;;;;;;20.05;64.01;100624.16;4952555;28;20030;-82
2021/07/25 08:23:22;;;;;;;16.90;8.65;;;;;;;20.12;63.75;100626.78;4945637;29;20126;-81
2021/07/25 08:25:47;;;;;;;11.90;7.35;;;;;;;20.25;64.05;100629.22;4958335;28;20047;-81
2021/07/25 08:28:13;;;;;;;12.45;7.20;;;;;;;20.30;64.01;100625.75;4942139;29;20032;-82
2021/07/25 08:30:39;;;;;;;14.18;8.20;;;;;;;20.38;63.38;100623.47;4954901;28;20023;-80
2021/07/25 08:33:05;;;;;;;14.02;8.60;;;;;;;20.50;62.81;100634.31;4941777;29;20036;-82
2021/07/25 08:35:30;;;;;;;12.07;7.93;;;;;;;20.59;62.40;100618.41;4954395;29;20528;-82
2021/07/25 08:37:56;;;;;;;13.07;7.40;;;;;;;20.67;61.80;100628.94;4955123;28;20035;-81
2021/07/25 08:40:22;;;;;;;12.55;7.80;;;;;;;20.76;61.23;100629.34;4956135;28;20406;-80
2021/07/25 08:43:01;;;;;;;13.80;7.28;;;;;;;20.75;62.19;100627.72;4951647;28;20027;-81
2021/07/25 08:45:27;;;;;;;13.27;7.88;;;;;;;20.93;62.86;100629.38;4939904;29;20031;-82
2021/07/25 08:48:01;;;;;;;12.25;8.23;;;;;;;21.15;61.86;100635.75;4958379;29;20033;-82
2021/07/25 08:50:27;;;;;;;15.60;8.38;;;;;;;21.37;60.88;100646.75;4957122;29;20063;-82
2021/07/25 08:52:54;;;;;;;12.32;7.88;;;;;;;21.52;59.87;100640.72;4933494;29;20027;-81
2021/07/25 08:55:21;;;;;;;12.02;7.75;;;;;;;21.64;58.76;100633.22;4949778;29;20639;-81
2021/07/25 08:57:48;;;;;;;11.88;7.88;;;;;;;21.77;57.30;100634.78;4949673;29;20027;-81
2021/07/25 09:00:17;;;;;;;11.95;7.95;;;;;;;21.90;56.38;100637.13;4947278;29;20055;-81
2021/07/25 09:02:43;;;;;;;14.48;8.57;;;;;;;21.93;56.72;100636.63;4949085;29;20023;-81
2021/07/25 09:05:10;;;;;;;14.98;7.63;;;;;;;21.88;57.24;100627.53;4949875;29;20036;-81
2021/07/25 09:07:40;;;;;;;14.45;7.15;;;;;;;21.95;57.24;100629.00;4948732;29;20027;-81
2021/07/25 09:10:06;;;;;;;12.93;8.25;;;;;;;22.00;56.29;100641.94;4949498;28;20023;-82
2021/07/25 09:12:32;;;;;;;11.10;7.57;;;;;;;22.13;55.25;100638.81;4949452;28;20127;-82
2021/07/25 09:15:02;;;;;;;16.27;7.65;;;;;;;22.27;54.95;100638.44;4949092;28;20027;-83
2021/07/25 09:17:28;;;;;;;14.02;8.40;;;;;;;22.18;55.11;100618.88;4945837;29;20062;-82
2021/07/25 09:20:12;;;;;;;15.23;7.82;;;;;;;22.54;55.05;100644.75;4950602;29;20055;-82
2021/07/25 09:22:53;;;;;;;11.05;7.18;;;;;;;22.70;55.12;100634.78;4952490;28;20079;-82
2021/07/25 09:25:21;;;;;;;11.55;7.03;;;;;;;22.83;55.72;100641.75;4966583;28;20122;-82
2021/07/25 09:28:06;;;;;;;10.63;7.68;;;;;;;23.03;54.09;100633.75;4957754;28;20022;-82
2021/07/25 09:30:33;;;;;;;13.65;7.50;;;;;;;23.26;52.74;100626.25;4951008;28;20031;-82
2021/07/25 09:32:59;;;;;;;14.15;7.70;;;;;;;23.37;53.42;100630.72;4952487;29;20016;-82
2021/07/25 09:35:28;;;;;;;12.32;7.07;;;;;;;23.46;53.27;100625.53;4952862;29;20386;-81
2021/07/25 09:38:01;;;;;;;11.73;7.63;;;;;;;23.58;52.90;100634.41;4948206;28;20051;-81
2021/07/25 09:40:29;;;;;;;13.38;7.97;;;;;;;23.66;52.68;100633.91;4965791;28;20023;-81
2021/07/25 09:43:07;;;;;;;12.82;7.50;;;;;;;23.78;51.54;100627.41;4931567;28;20061;-82
2021/07/25 09:45:32;;;;;;;12.82;7.22;;;;;;;23.89;51.97;100624.41;4964404;28;20023;-82
2021/07/25 09:48:09;;;;;;;10.68;7.60;;;;;;;23.99;50.60;100626.38;4936254;28;20449;-82
2021/07/25 09:50:35;;;;;;;13.38;6.80;;;;;;;24.14;50.12;100628.38;4945424;28;20074;-83
2021/07/25 09:53:01;;;;;;;10.00;7.07;;;;;;;24.21;49.52;100634.44;4948490;29;20988;-82
2021/07/25 09:55:30;;;;;;;10.35;8.38;;;;;;;24.30;49.74;100632.00;4936612;29;20027;-82
2021/07/25 09:57:55;;;;;;;11.00;7.05;;;;;;;24.32;49.22;100636.13;4949081;29;20023;-82
2021/07/25 10:00:21;;;;;;;12.30;6.80;;;;;;;24.29;49.18;100636.69;4937900;28;20051;-82
2021/07/25 10:02:47;;;;;;;10.95;7.47;;;;;;;24.26;48.67;100628.13;4938403;29;20027;-83
2021/07/25 10:05:19;;;;;;;12.32;7.32;;;;;;;24.54;47.94;100629.63;4941620;29;20492;-82
2021/07/25 10:07:47;;;;;;;10.80;7.10;;;;;;;24.80;47.92;100635.97;4968109;28;20055;-82
2021/07/25 10:10:17;;;;;;;9.90;6.95;;;;;;;24.79;49.50;100639.81;4957680;29;20134;-82
2021/07/25 10:12:45;;;;;;;12.02;7.35;;;;;;;24.77;48.74;100625.53;4941316;29;20023;-83
2021/07/25 10:15:11;;;;;;;11.35;6.70;;;;;;;24.86;48.40;100634.06;4958669;28;20035;-82
2021/07/25 10:17:41;;;;;;;10.55;7.38;;;;;;;24.89;48.71;100634.31;4957888;28;20050;-83
2021/07/25 10:20:08;;;;;;;10.32;7.25;;;;;;;24.97;47.86;100630.19;4957181;29;20031;-83
2021/07/25 10:22:35;;;;;;;11.05;6.50;;;;;;;25.10;47.94;100635.16;4940380;29;20027;-83
2021/07/25 10:25:04;;;;;;;11.55;7.32;;;;;;;25.16;47.35;100638.75;4954281;29;20031;-83
2021/07/25 10:27:32;;;;;;;10.40;7.55;;;;;;;25.22;48.03;100637.66;4938538;28;20490;-83
2021/07/25 10:30:09;;;;;;;11.75;7.65;;;;;;;25.50;47.88;100633.47;4956865;29;20027;-82
2021/07/25 10:32:37;;;;;;;9.75;7.30;;;;;;;25.62;47.74;100645.03;4938842;28;20424;-82
2021/07/25 10:35:10;;;;;;;12.85;7.80;;;;;;;25.64;48.96;100644.72;4939968;28;20396;-82
2021/07/25 10:37:37;;;;;;;10.65;7.10;;;;;;;25.63;48.12;100649.41;4948687;29;20030;-82
2021/07/25 10:40:04;;;;;;;9.57;6.93;;;;;;;25.56;48.21;100639.78;4966575;29;20051;-82
2021/07/25 10:42:31;;;;;;;12.98;7.63;;;;;;;25.49;48.57;100642.03;4949042;29;20743;-83
2021/07/25 10:44:57;;;;;;;11.35;7.32;;;;;;;25.66;47.88;100650.78;4949680;28;20031;-82
2021/07/25 10:47:25;;;;;;;12.05;7.30;;;;;;;25.85;47.37;100640.88;4964760;29;20042;-83
2021/07/25 10:49:59;;;;;;;13.18;7.32;;;;;;;26.11;48.68;100649.00;4943249;28;20063;-82
2021/07/25 10:52:26;;;;;;;10.57;7.15;;;;;;;26.25;46.81;100650.06;4966238;28;20027;-83
2021/07/25 10:54:52;;;;;;;10.48;7.53;;;;;;;26.21;46.81;100648.97;4949841;29;20047;-83
2021/07/25 10:57:20;;;;;;;9.77;7.03;;;;;;;26.26;46.60;100640.66;4964165;29;20062;-83
2021/07/25 10:59:55;;;;;;;12.80;7.65;;;;;;;26.39;45.89;100650.25;4964060;29;20030;-83
2021/07/25 11:02:28;;;;;;;12.25;7.20;;;;;;;26.47;45.66;100654.34;4962486;29;20081;-81
2021/07/25 11:04:53;;;;;;;11.98;7.53;;;;;;;26.52;44.40;100644.16;4956790;29;20023;-81
2021/07/25 11:07:21;;;;;;;12.13;7.55;;;;;;;26.50;44.87;100642.75;4967006;28;20045;-81
2021/07/25 11:10:13;;;;;;;11.32;7.13;;;;;;;26.51;45.17;100644.38;4957508;28;20115;-81
2021/07/25 11:12:48;;;;;;;11.32;7.63;;;;;;;26.55;45.22;100641.94;4946335;29;20042;-81
2021/07/25 11:15:31;;;;;;;12.52;7.10;;;;;;;26.60;45.22;100639.16;4954726;28;20035;-82
2021/07/25 11:18:01;;;;;;;10.90;7.65;;;;;;;26.74;44.78;100640.94;4966986;28;20031;-81
2021/07/25 11:20:37;;;;;;;12.45;7.85;;;;;;;26.78;45.24;100640.38;4951123;28;20054;-81